Evelyn James — WDI8937 — position and weather

sailwx.info

Track history (hours):
 
Tides and Currents Weather Stations Pressure Air Temp Water Temp Dewpoint Dewpoint Depression Visibility Wind Speed Wind Dir Waves Ship Positions

Evelyn James

Owner: NGL Marine, LLC, Deer Park, TX. More information available from US FCC via Universal Licensing System and Coast Guard Vessel Documentation Center.

Last reported at 2018-Jun-12 19:21 UTC. Time now 2018-Jun-19 10:26 UTC.
Position N 29°42' W 095°01'.

Length 25 m; draft 3.6 m.

Type: Pilot. MMSI: 367743660.

Date/timePositionNaut miles runAvg speedWind from/ knotsBaromVisibWave heightAir tempDewpointWater temp
2018-Jun-12 19:21N 29°42' W 095°01'3 7.4
2018-Jun-12 18:57N 29°40' W 094°59'4 8.1
2018-Jun-12 18:24N 29°36' W 094°57'13 8.1
2018-Jun-12 16:45N 29°24' W 094°49'12 5.2
2018-Jun-12 14:27N 29°29' W 094°36'7 5.8
2018-Jun-12 13:20N 29°31' W 094°29'2 5.2
2018-Jun-12 12:59N 29°33' W 094°28'2 5.1
2018-Jun-12 12:30N 29°34' W 094°26'2 4.8
2018-Jun-12 12:00N 29°36' W 094°24'2 3.5
2018-Jun-12 11:30N 29°36' W 094°22'1 2.3
2018-Jun-12 11:01N 29°37' W 094°21'3 5.6
2018-Jun-12 10:30N 29°38' W 094°18'3 5.8
2018-Jun-12 10:00N 29°39' W 094°15'3 6.1
2018-Jun-12 09:30N 29°41' W 094°12'3 6.1
2018-Jun-12 09:00N 29°42' W 094°09'3 6.6
2018-Jun-12 08:30N 29°44' W 094°06'3 6.7
2018-Jun-12 08:00N 29°46' W 094°03'3 6.5
2018-Jun-12 07:30N 29°48' W 093°60'3 5.8
2018-Jun-12 07:00N 29°50' W 093°57'4 7.9
2018-Jun-12 06:30N 29°53' W 093°55'4 8.2
2018-Jun-12 06:00N 29°57' W 093°52'3 6.3
2018-Jun-12 05:30N 29°59' W 093°49'4 7.6
2018-Jun-12 05:00N 30°01' W 093°46'4 6.8
2018-Jun-12 04:30N 30°03' W 093°43'3 6.5
2018-Jun-12 03:59N 30°04' W 093°39'3 6.2
2018-Jun-12 03:30N 30°04' W 093°36'3 5.2
2018-Jun-12 03:00N 30°04' W 093°33'3 5.2
2018-Jun-12 02:30N 30°04' W 093°30'3 5.2
2018-Jun-12 02:00N 30°04' W 093°27'3 5.1
2018-Jun-12 01:30N 30°04' W 093°24'2 3.2
2018-Jun-12 01:00N 30°04' W 093°22'1 2.8
2018-Jun-12 00:30N 30°04' W 093°20'2 3.0
2018-Jun-12 00:00N 30°06' W 093°20'3 6.4
2018-Jun-11 23:30N 30°09' W 093°20'3 6.3
2018-Jun-11 23:00N 30°11' W 093°18'2 3.8
2018-Jun-11 22:25N 30°13' W 093°16'1 1.8
2018-Jun-11 22:00N 30°13' W 093°16'1 1.2
2018-Jun-11 21:30N 30°14' W 093°15'0 0.0
2018-Jun-11 20:57N 30°14' W 093°15'0 0.0
2018-Jun-11 20:30N 30°14' W 093°15'0 0.0
2018-Jun-11 20:00N 30°14' W 093°15'0 0.0
2018-Jun-11 19:30N 30°14' W 093°15'0 0.0
2018-Jun-11 19:00N 30°14' W 093°15'0 0.0
2018-Jun-11 18:30N 30°14' W 093°15'0 0.0
2018-Jun-11 18:00N 30°14' W 093°15'0 0.0
2018-Jun-11 17:30N 30°14' W 093°15'0 0.0
2018-Jun-11 16:57N 30°14' W 093°15'0 0.0
2018-Jun-11 16:30N 30°14' W 093°15'0 0.0
2018-Jun-11 15:57N 30°14' W 093°15'0 0.0
2018-Jun-11 15:30N 30°14' W 093°15'0 0.0
2018-Jun-11 15:00N 30°14' W 093°15'0 0.0
2018-Jun-11 14:30N 30°14' W 093°15'0 0.0
2018-Jun-11 14:00N 30°14' W 093°15'0 0.0
2018-Jun-11 13:30N 30°14' W 093°15'0 0.0
2018-Jun-11 13:00N 30°14' W 093°15'0 0.0
2018-Jun-11 12:30N 30°14' W 093°15'0 0.0
2018-Jun-11 12:00N 30°14' W 093°15'0 0.0
2018-Jun-11 11:30N 30°14' W 093°15'0 0.0
2018-Jun-11 11:00N 30°14' W 093°15'0 0.0
2018-Jun-11 10:30N 30°14' W 093°15'0 0.0
2018-Jun-11 10:00N 30°14' W 093°15'0 0.0
2018-Jun-11 09:30N 30°14' W 093°15'0 0.0
2018-Jun-11 09:00N 30°14' W 093°15'0 0.0
2018-Jun-11 08:30N 30°14' W 093°15'0 0.0
2018-Jun-11 08:00N 30°14' W 093°15'0 0.0
2018-Jun-11 07:30N 30°14' W 093°15'0 0.0
2018-Jun-11 07:00N 30°14' W 093°15'0 0.0
2018-Jun-11 06:30N 30°14' W 093°15'0 0.0
2018-Jun-11 06:00N 30°14' W 093°15'0 0.0
2018-Jun-11 05:30N 30°14' W 093°15'0 0.0
2018-Jun-11 05:00N 30°14' W 093°15'0 0.0
2018-Jun-11 04:30N 30°14' W 093°15'0 0.0
2018-Jun-11 04:00N 30°14' W 093°15'0 0.0
2018-Jun-11 03:30N 30°14' W 093°15'0 0.0
2018-Jun-11 03:00N 30°14' W 093°15'0 0.0
2018-Jun-11 02:30N 30°14' W 093°15'0 0.0
2018-Jun-11 02:00N 30°14' W 093°15'0 0.0
2018-Jun-11 01:30N 30°14' W 093°15'0 0.0
2018-Jun-11 01:00N 30°14' W 093°15'0 0.0
2018-Jun-11 00:30N 30°14' W 093°15'0 0.6
2018-Jun-10 23:58N 30°14' W 093°16'1 2.6
2018-Jun-10 23:31N 30°13' W 093°16'4 7.1
2018-Jun-10 23:00N 30°11' W 093°19'3 6.9
2018-Jun-10 22:31N 30°07' W 093°20'2 3.8
2018-Jun-10 21:58N 30°05' W 093°20'0 0.0
2018-Jun-10 21:28N 30°05' W 093°20'0 0.0
2018-Jun-10 20:58N 30°05' W 093°20'0 0.0
2018-Jun-10 20:28N 30°05' W 093°20'0 0.0
2018-Jun-10 19:58N 30°05' W 093°20'0 0.0
2018-Jun-10 19:28N 30°05' W 093°20'0 0.0
2018-Jun-10 18:58N 30°05' W 093°20'0 0.0
2018-Jun-10 18:28N 30°05' W 093°20'0 0.0
2018-Jun-10 17:55N 30°05' W 093°20'0 0.0
2018-Jun-10 17:28N 30°05' W 093°20'0 0.0
2018-Jun-10 16:58N 30°05' W 093°20'0 0.0
2018-Jun-10 16:25N 30°05' W 093°20'0 0.0
2018-Jun-10 15:58N 30°05' W 093°20'0 0.0
2018-Jun-10 15:28N 30°05' W 093°20'0 0.0
2018-Jun-10 14:58N 30°05' W 093°20'0 0.0
2018-Jun-10 13:58N 30°05' W 093°20'0 0.0
2018-Jun-10 13:28N 30°05' W 093°20'0 0.0
2018-Jun-10 12:58N 30°05' W 093°20'0 0.0
2018-Jun-10 12:28N 30°05' W 093°20'0 0.0
2018-Jun-10 11:58N 30°05' W 093°20'0 0.0
2018-Jun-10 11:28N 30°05' W 093°20'0 0.0
2018-Jun-10 10:58N 30°05' W 093°20'0 0.0
2018-Jun-10 10:28N 30°05' W 093°20'0 0.0
2018-Jun-10 09:58N 30°05' W 093°20'0 0.0
2018-Jun-10 09:28N 30°05' W 093°20'0 0.0
2018-Jun-10 08:58N 30°05' W 093°20'0 0.0
2018-Jun-10 08:28N 30°05' W 093°20'0 0.0
2018-Jun-10 07:58N 30°05' W 093°20'0 0.0
2018-Jun-10 07:28N 30°05' W 093°20'0 0.0
2018-Jun-10 06:58N 30°05' W 093°20'0 0.0
2018-Jun-10 06:28N 30°05' W 093°20'0 0.0
2018-Jun-10 05:58N 30°05' W 093°20'0 0.0
2018-Jun-10 05:28N 30°05' W 093°20'0 0.0
2018-Jun-10 04:58N 30°05' W 093°20'0 0.0
2018-Jun-10 04:28N 30°05' W 093°20'0 0.0
2018-Jun-10 03:58N 30°05' W 093°20'0 0.0
2018-Jun-10 03:28N 30°05' W 093°20'0 0.0
2018-Jun-10 02:58N 30°05' W 093°20'0 0.0
2018-Jun-10 02:28N 30°05' W 093°20'0 0.0
2018-Jun-10 01:58N 30°05' W 093°20'0 0.0
2018-Jun-10 01:28N 30°05' W 093°20'0 0.0
2018-Jun-10 00:58N 30°05' W 093°20'0 0.0
2018-Jun-10 00:28N 30°05' W 093°20'0 0.0
2018-Jun-09 23:58N 30°05' W 093°20'0 0.0
2018-Jun-09 23:28N 30°05' W 093°20'0 0.0
2018-Jun-09 22:58N 30°05' W 093°20'0 0.0
2018-Jun-09 22:28N 30°05' W 093°20'0 0.0
2018-Jun-09 21:58N 30°05' W 093°20'0 0.0
2018-Jun-09 21:28N 30°05' W 093°20'0 0.0
2018-Jun-09 20:58N 30°05' W 093°20'0 0.0
2018-Jun-09 20:28N 30°05' W 093°20'0 0.0
2018-Jun-09 19:58N 30°05' W 093°20'0 0.0
2018-Jun-09 19:28N 30°05' W 093°20'0 0.0
2018-Jun-09 18:58N 30°05' W 093°20'0 0.0
2018-Jun-09 18:28N 30°05' W 093°20'0 0.0
2018-Jun-09 17:58N 30°05' W 093°20'0 0.0
2018-Jun-09 17:28N 30°05' W 093°20'0 0.0
2018-Jun-09 16:58N 30°05' W 093°20'0 0.0
2018-Jun-09 16:28N 30°05' W 093°20'0 0.0
2018-Jun-09 15:58N 30°05' W 093°20'0 0.0
2018-Jun-09 14:58N 30°05' W 093°20'0 0.0
2018-Jun-09 14:28N 30°05' W 093°20'0 0.0
2018-Jun-09 13:58N 30°05' W 093°20'0 0.0
2018-Jun-09 13:28N 30°05' W 093°20'0 0.0
2018-Jun-09 12:58N 30°05' W 093°20'0 0.0
2018-Jun-09 12:28N 30°05' W 093°20'0 0.0
2018-Jun-09 11:58N 30°05' W 093°20'0 0.0
2018-Jun-09 11:28N 30°05' W 093°20'0 0.0
2018-Jun-09 10:58N 30°05' W 093°20'0 0.0
2018-Jun-09 10:28N 30°05' W 093°20'0 0.0
2018-Jun-09 09:58N 30°05' W 093°20'0 0.0
2018-Jun-09 09:28N 30°05' W 093°20'0 0.0
2018-Jun-09 08:58N 30°05' W 093°20'0 0.0
2018-Jun-09 08:28N 30°05' W 093°20'0 0.0
2018-Jun-09 07:58N 30°05' W 093°20'0 0.0
2018-Jun-09 07:28N 30°05' W 093°20'0 0.0
2018-Jun-09 06:58N 30°05' W 093°20'0 0.0
2018-Jun-09 06:28N 30°05' W 093°20'0 0.0
2018-Jun-09 05:58N 30°05' W 093°20'0 0.0
2018-Jun-09 05:28N 30°05' W 093°20'0 0.0
2018-Jun-09 04:58N 30°05' W 093°20'0 0.0
2018-Jun-09 04:28N 30°05' W 093°20'0 0.0
2018-Jun-09 03:58N 30°05' W 093°20'0 0.0
2018-Jun-09 03:28N 30°05' W 093°20'0 0.0
2018-Jun-09 02:58N 30°05' W 093°20'0 0.0
2018-Jun-09 02:28N 30°05' W 093°20'0 0.0
2018-Jun-09 01:58N 30°05' W 093°20'0 0.0
2018-Jun-09 01:28N 30°05' W 093°20'0 0.0
2018-Jun-09 00:58N 30°05' W 093°20'0 0.0
2018-Jun-09 00:28N 30°05' W 093°20'0 0.0
2018-Jun-08 23:58N 30°05' W 093°20'0 0.0
2018-Jun-08 23:28N 30°05' W 093°20'0 0.1
2018-Jun-08 22:58N 30°05' W 093°20'0 0.0
2018-Jun-08 22:28N 30°05' W 093°20'0 0.0
2018-Jun-08 21:58N 30°05' W 093°20'0 0.0
2018-Jun-08 21:28N 30°05' W 093°20'0 0.0
2018-Jun-08 20:52N 30°05' W 093°20'0 0.0
2018-Jun-08 20:28N 30°05' W 093°20'0 0.0
2018-Jun-08 19:58N 30°05' W 093°20'0 0.0
2018-Jun-08 19:28N 30°05' W 093°20'0 0.0
2018-Jun-08 18:58N 30°05' W 093°20'0 0.0
2018-Jun-08 18:28N 30°05' W 093°20'0 0.0
2018-Jun-08 17:58N 30°05' W 093°20'0 0.0
2018-Jun-08 17:28N 30°05' W 093°20'0 0.1
2018-Jun-08 17:00N 30°05' W 093°20'2 4.4
2018-Jun-08 16:30N 30°04' W 093°22'3 5.3
2018-Jun-08 16:00N 30°04' W 093°25'3 5.6
2018-Jun-08 15:30N 30°04' W 093°28'3 5.6
2018-Jun-08 15:00N 30°04' W 093°31'3 5.6
2018-Jun-08 14:30N 30°04' W 093°34'3 5.7
2018-Jun-08 14:00N 30°03' W 093°38'3 5.8
2018-Jun-08 13:30N 30°04' W 093°41'3 5.1
2018-Jun-08 13:00N 30°03' W 093°44'3 5.7
2018-Jun-08 12:30N 30°00' W 093°46'3 6.5
2018-Jun-08 12:00N 29°59' W 093°49'3 6.2
2018-Jun-08 11:30N 29°57' W 093°52'3 6.7
2018-Jun-08 11:00N 29°54' W 093°54'3 6.8
2018-Jun-08 10:30N 29°51' W 093°56'3 5.0
2018-Jun-08 10:00N 29°49' W 093°58'1 3.0
2018-Jun-08 09:30N 29°49' W 093°60'3 6.0
2018-Jun-08 09:00N 29°47' W 094°02'3 5.9
2018-Jun-08 08:30N 29°45' W 094°05'3 5.6
2018-Jun-08 08:00N 29°43' W 094°07'3 5.7
2018-Jun-08 07:30N 29°41' W 094°10'3 5.7
2018-Jun-08 07:00N 29°40' W 094°13'3 5.5
2018-Jun-08 06:29N 29°39' W 094°16'3 5.6
2018-Jun-08 06:00N 29°38' W 094°19'3 5.7
2018-Jun-08 05:30N 29°36' W 094°22'3 5.3
2018-Jun-08 05:00N 29°36' W 094°25'2 4.6
2018-Jun-08 04:30N 29°34' W 094°26'3 5.2
2018-Jun-08 03:59N 29°32' W 094°29'11 6.0
2018-Jun-08 02:12N 29°28' W 094°40'2 6.2
2018-Jun-08 01:55N 29°27' W 094°42'3 3.8
2018-Jun-08 01:14N 29°25' W 094°44'0 0.0
2018-Jun-08 00:51N 29°25' W 094°44'2 5.5
2018-Jun-08 00:30N 29°24' W 094°45'3 5.8
2018-Jun-08 00:00N 29°22' W 094°48'5 8.5
2018-Jun-07 23:28N 29°26' W 094°50'8 7.1
2018-Jun-07 22:22N 29°33' W 094°55'3 6.9
2018-Jun-07 21:59N 29°35' W 094°56'3 7.0
2018-Jun-07 21:30N 29°38' W 094°58'  
2018-Jun-04 13:37N 29°46' W 095°06'0 0.0
2018-Jun-04 13:27N 29°46' W 095°06'0 0.0
2018-Jun-04 13:00N 29°46' W 095°06'0 0.0
2018-Jun-03 08:03N 29°46' W 095°06'0 0.0
2018-Jun-03 08:00N 29°46' W 095°06'0 0.0
2018-Jun-03 06:36N 29°46' W 095°06'0 0.0
2018-Jun-03 06:24N 29°46' W 095°06'0 0.0
2018-Jun-03 05:57N 29°46' W 095°06'0 0.0
2018-Jun-03 05:21N 29°46' W 095°06'0 0.0
2018-Jun-03 05:00N 29°46' W 095°06'0 0.0
2018-Jun-03 04:21N 29°46' W 095°06'0 0.0
2018-Jun-03 04:00N 29°46' W 095°06'0 0.0
2018-Jun-03 03:24N 29°46' W 095°06'  
Track history (hours):
 
Tides and Currents Weather Stations Pressure Air Temp Water Temp Dewpoint Dewpoint Depression Visibility Wind Speed Wind Dir Waves Ship Positions

Evelyn James

Owner: NGL Marine, LLC, Deer Park, TX. More information available from US FCC via Universal Licensing System and Coast Guard Vessel Documentation Center.

Last reported at 2018-Jun-12 19:21 UTC. Time now 2018-Jun-19 10:26 UTC.
Position N 29°42' W 095°01'.

Length 25 m; draft 3.6 m.

Type: Pilot. MMSI: 367743660.

Date/timePositionNaut miles runAvg speedWind from/ knotsBaromVisibWave heightAir tempDewpointWater temp
2018-Jun-12 19:21N 29°42' W 095°01'3 7.4
2018-Jun-12 18:57N 29°40' W 094°59'4 8.1
2018-Jun-12 18:24N 29°36' W 094°57'13 8.1
2018-Jun-12 16:45N 29°24' W 094°49'12 5.2
2018-Jun-12 14:27N 29°29' W 094°36'7 5.8
2018-Jun-12 13:20N 29°31' W 094°29'2 5.2
2018-Jun-12 12:59N 29°33' W 094°28'2 5.1
2018-Jun-12 12:30N 29°34' W 094°26'2 4.8
2018-Jun-12 12:00N 29°36' W 094°24'2 3.5
2018-Jun-12 11:30N 29°36' W 094°22'1 2.3
2018-Jun-12 11:01N 29°37' W 094°21'3 5.6
2018-Jun-12 10:30N 29°38' W 094°18'3 5.8
2018-Jun-12 10:00N 29°39' W 094°15'3 6.1
2018-Jun-12 09:30N 29°41' W 094°12'3 6.1
2018-Jun-12 09:00N 29°42' W 094°09'3 6.6
2018-Jun-12 08:30N 29°44' W 094°06'3 6.7
2018-Jun-12 08:00N 29°46' W 094°03'3 6.5
2018-Jun-12 07:30N 29°48' W 093°60'3 5.8
2018-Jun-12 07:00N 29°50' W 093°57'4 7.9
2018-Jun-12 06:30N 29°53' W 093°55'4 8.2
2018-Jun-12 06:00N 29°57' W 093°52'3 6.3
2018-Jun-12 05:30N 29°59' W 093°49'4 7.6
2018-Jun-12 05:00N 30°01' W 093°46'4 6.8
2018-Jun-12 04:30N 30°03' W 093°43'3 6.5
2018-Jun-12 03:59N 30°04' W 093°39'3 6.2
2018-Jun-12 03:30N 30°04' W 093°36'3 5.2
2018-Jun-12 03:00N 30°04' W 093°33'3 5.2
2018-Jun-12 02:30N 30°04' W 093°30'3 5.2
2018-Jun-12 02:00N 30°04' W 093°27'3 5.1
2018-Jun-12 01:30N 30°04' W 093°24'2 3.2
2018-Jun-12 01:00N 30°04' W 093°22'1 2.8
2018-Jun-12 00:30N 30°04' W 093°20'2 3.0
2018-Jun-12 00:00N 30°06' W 093°20'3 6.4
2018-Jun-11 23:30N 30°09' W 093°20'3 6.3
2018-Jun-11 23:00N 30°11' W 093°18'2 3.8
2018-Jun-11 22:25N 30°13' W 093°16'1 1.8
2018-Jun-11 22:00N 30°13' W 093°16'1 1.2
2018-Jun-11 21:30N 30°14' W 093°15'0 0.0
2018-Jun-11 20:57N 30°14' W 093°15'0 0.0
2018-Jun-11 20:30N 30°14' W 093°15'0 0.0
2018-Jun-11 20:00N 30°14' W 093°15'0 0.0
2018-Jun-11 19:30N 30°14' W 093°15'0 0.0
2018-Jun-11 19:00N 30°14' W 093°15'0 0.0
2018-Jun-11 18:30N 30°14' W 093°15'0 0.0
2018-Jun-11 18:00N 30°14' W 093°15'0 0.0
2018-Jun-11 17:30N 30°14' W 093°15'0 0.0
2018-Jun-11 16:57N 30°14' W 093°15'0 0.0
2018-Jun-11 16:30N 30°14' W 093°15'0 0.0
2018-Jun-11 15:57N 30°14' W 093°15'0 0.0
2018-Jun-11 15:30N 30°14' W 093°15'0 0.0
2018-Jun-11 15:00N 30°14' W 093°15'0 0.0
2018-Jun-11 14:30N 30°14' W 093°15'0 0.0
2018-Jun-11 14:00N 30°14' W 093°15'0 0.0
2018-Jun-11 13:30N 30°14' W 093°15'0 0.0
2018-Jun-11 13:00N 30°14' W 093°15'0 0.0
2018-Jun-11 12:30N 30°14' W 093°15'0 0.0
2018-Jun-11 12:00N 30°14' W 093°15'0 0.0
2018-Jun-11 11:30N 30°14' W 093°15'0 0.0
2018-Jun-11 11:00N 30°14' W 093°15'0 0.0
2018-Jun-11 10:30N 30°14' W 093°15'0 0.0
2018-Jun-11 10:00N 30°14' W 093°15'0 0.0
2018-Jun-11 09:30N 30°14' W 093°15'0 0.0
2018-Jun-11 09:00N 30°14' W 093°15'0 0.0
2018-Jun-11 08:30N 30°14' W 093°15'0 0.0
2018-Jun-11 08:00N 30°14' W 093°15'0 0.0
2018-Jun-11 07:30N 30°14' W 093°15'0 0.0
2018-Jun-11 07:00N 30°14' W 093°15'0 0.0
2018-Jun-11 06:30N 30°14' W 093°15'0 0.0
2018-Jun-11 06:00N 30°14' W 093°15'0 0.0
2018-Jun-11 05:30N 30°14' W 093°15'0 0.0
2018-Jun-11 05:00N 30°14' W 093°15'0 0.0
2018-Jun-11 04:30N 30°14' W 093°15'0 0.0
2018-Jun-11 04:00N 30°14' W 093°15'0 0.0
2018-Jun-11 03:30N 30°14' W 093°15'0 0.0
2018-Jun-11 03:00N 30°14' W 093°15'0 0.0
2018-Jun-11 02:30N 30°14' W 093°15'0 0.0
2018-Jun-11 02:00N 30°14' W 093°15'0 0.0
2018-Jun-11 01:30N 30°14' W 093°15'0 0.0
2018-Jun-11 01:00N 30°14' W 093°15'0 0.0
2018-Jun-11 00:30N 30°14' W 093°15'0 0.6
2018-Jun-10 23:58N 30°14' W 093°16'1 2.6
2018-Jun-10 23:31N 30°13' W 093°16'4 7.1
2018-Jun-10 23:00N 30°11' W 093°19'3 6.9
2018-Jun-10 22:31N 30°07' W 093°20'2 3.8
2018-Jun-10 21:58N 30°05' W 093°20'0 0.0
2018-Jun-10 21:28N 30°05' W 093°20'0 0.0
2018-Jun-10 20:58N 30°05' W 093°20'0 0.0
2018-Jun-10 20:28N 30°05' W 093°20'0 0.0
2018-Jun-10 19:58N 30°05' W 093°20'0 0.0
2018-Jun-10 19:28N 30°05' W 093°20'0 0.0
2018-Jun-10 18:58N 30°05' W 093°20'0 0.0
2018-Jun-10 18:28N 30°05' W 093°20'0 0.0
2018-Jun-10 17:55N 30°05' W 093°20'0 0.0
2018-Jun-10 17:28N 30°05' W 093°20'0 0.0
2018-Jun-10 16:58N 30°05' W 093°20'0 0.0
2018-Jun-10 16:25N 30°05' W 093°20'0 0.0
2018-Jun-10 15:58N 30°05' W 093°20'0 0.0
2018-Jun-10 15:28N 30°05' W 093°20'0 0.0
2018-Jun-10 14:58N 30°05' W 093°20'0 0.0
2018-Jun-10 13:58N 30°05' W 093°20'0 0.0
2018-Jun-10 13:28N 30°05' W 093°20'0 0.0
2018-Jun-10 12:58N 30°05' W 093°20'0 0.0
2018-Jun-10 12:28N 30°05' W 093°20'0 0.0
2018-Jun-10 11:58N 30°05' W 093°20'0 0.0
2018-Jun-10 11:28N 30°05' W 093°20'0 0.0
2018-Jun-10 10:58N 30°05' W 093°20'0 0.0
2018-Jun-10 10:28N 30°05' W 093°20'0 0.0
2018-Jun-10 09:58N 30°05' W 093°20'0 0.0
2018-Jun-10 09:28N 30°05' W 093°20'0 0.0
2018-Jun-10 08:58N 30°05' W 093°20'0 0.0
2018-Jun-10 08:28N 30°05' W 093°20'0 0.0
2018-Jun-10 07:58N 30°05' W 093°20'0 0.0
2018-Jun-10 07:28N 30°05' W 093°20'0 0.0
2018-Jun-10 06:58N 30°05' W 093°20'0 0.0
2018-Jun-10 06:28N 30°05' W 093°20'0 0.0
2018-Jun-10 05:58N 30°05' W 093°20'0 0.0
2018-Jun-10 05:28N 30°05' W 093°20'0 0.0
2018-Jun-10 04:58N 30°05' W 093°20'0 0.0
2018-Jun-10 04:28N 30°05' W 093°20'0 0.0
2018-Jun-10 03:58N 30°05' W 093°20'0 0.0
2018-Jun-10 03:28N 30°05' W 093°20'0 0.0
2018-Jun-10 02:58N 30°05' W 093°20'0 0.0
2018-Jun-10 02:28N 30°05' W 093°20'0 0.0
2018-Jun-10 01:58N 30°05' W 093°20'0 0.0
2018-Jun-10 01:28N 30°05' W 093°20'0 0.0
2018-Jun-10 00:58N 30°05' W 093°20'0 0.0
2018-Jun-10 00:28N 30°05' W 093°20'0 0.0
2018-Jun-09 23:58N 30°05' W 093°20'0 0.0
2018-Jun-09 23:28N 30°05' W 093°20'0 0.0
2018-Jun-09 22:58N 30°05' W 093°20'0 0.0
2018-Jun-09 22:28N 30°05' W 093°20'0 0.0
2018-Jun-09 21:58N 30°05' W 093°20'0 0.0
2018-Jun-09 21:28N 30°05' W 093°20'0 0.0
2018-Jun-09 20:58N 30°05' W 093°20'0 0.0
2018-Jun-09 20:28N 30°05' W 093°20'0 0.0
2018-Jun-09 19:58N 30°05' W 093°20'0 0.0
2018-Jun-09 19:28N 30°05' W 093°20'0 0.0
2018-Jun-09 18:58N 30°05' W 093°20'0 0.0
2018-Jun-09 18:28N 30°05' W 093°20'0 0.0
2018-Jun-09 17:58N 30°05' W 093°20'0 0.0
2018-Jun-09 17:28N 30°05' W 093°20'0 0.0
2018-Jun-09 16:58N 30°05' W 093°20'0 0.0
2018-Jun-09 16:28N 30°05' W 093°20'0 0.0
2018-Jun-09 15:58N 30°05' W 093°20'0 0.0
2018-Jun-09 14:58N 30°05' W 093°20'0 0.0
2018-Jun-09 14:28N 30°05' W 093°20'0 0.0
2018-Jun-09 13:58N 30°05' W 093°20'0 0.0
2018-Jun-09 13:28N 30°05' W 093°20'0 0.0
2018-Jun-09 12:58N 30°05' W 093°20'0 0.0
2018-Jun-09 12:28N 30°05' W 093°20'0 0.0
2018-Jun-09 11:58N 30°05' W 093°20'0 0.0
2018-Jun-09 11:28N 30°05' W 093°20'0 0.0
2018-Jun-09 10:58N 30°05' W 093°20'0 0.0
2018-Jun-09 10:28N 30°05' W 093°20'0 0.0
2018-Jun-09 09:58N 30°05' W 093°20'0 0.0
2018-Jun-09 09:28N 30°05' W 093°20'0 0.0
2018-Jun-09 08:58N 30°05' W 093°20'0 0.0
2018-Jun-09 08:28N 30°05' W 093°20'0 0.0
2018-Jun-09 07:58N 30°05' W 093°20'0 0.0
2018-Jun-09 07:28N 30°05' W 093°20'0 0.0
2018-Jun-09 06:58N 30°05' W 093°20'0 0.0
2018-Jun-09 06:28N 30°05' W 093°20'0 0.0
2018-Jun-09 05:58N 30°05' W 093°20'0 0.0
2018-Jun-09 05:28N 30°05' W 093°20'0 0.0
2018-Jun-09 04:58N 30°05' W 093°20'0 0.0
2018-Jun-09 04:28N 30°05' W 093°20'0 0.0
2018-Jun-09 03:58N 30°05' W 093°20'0 0.0
2018-Jun-09 03:28N 30°05' W 093°20'0 0.0
2018-Jun-09 02:58N 30°05' W 093°20'0 0.0
2018-Jun-09 02:28N 30°05' W 093°20'0 0.0
2018-Jun-09 01:58N 30°05' W 093°20'0 0.0
2018-Jun-09 01:28N 30°05' W 093°20'0 0.0
2018-Jun-09 00:58N 30°05' W 093°20'0 0.0
2018-Jun-09 00:28N 30°05' W 093°20'0 0.0
2018-Jun-08 23:58N 30°05' W 093°20'0 0.0
2018-Jun-08 23:28N 30°05' W 093°20'0 0.1
2018-Jun-08 22:58N 30°05' W 093°20'0 0.0
2018-Jun-08 22:28N 30°05' W 093°20'0 0.0
2018-Jun-08 21:58N 30°05' W 093°20'0 0.0
2018-Jun-08 21:28N 30°05' W 093°20'0 0.0
2018-Jun-08 20:52N 30°05' W 093°20'0 0.0
2018-Jun-08 20:28N 30°05' W 093°20'0 0.0
2018-Jun-08 19:58N 30°05' W 093°20'0 0.0
2018-Jun-08 19:28N 30°05' W 093°20'0 0.0
2018-Jun-08 18:58N 30°05' W 093°20'0 0.0
2018-Jun-08 18:28N 30°05' W 093°20'0 0.0
2018-Jun-08 17:58N 30°05' W 093°20'0 0.0
2018-Jun-08 17:28N 30°05' W 093°20'0 0.1
2018-Jun-08 17:00N 30°05' W 093°20'2 4.4
2018-Jun-08 16:30N 30°04' W 093°22'3 5.3
2018-Jun-08 16:00N 30°04' W 093°25'3 5.6
2018-Jun-08 15:30N 30°04' W 093°28'3 5.6
2018-Jun-08 15:00N 30°04' W 093°31'3 5.6
2018-Jun-08 14:30N 30°04' W 093°34'3 5.7
2018-Jun-08 14:00N 30°03' W 093°38'3 5.8
2018-Jun-08 13:30N 30°04' W 093°41'3 5.1
2018-Jun-08 13:00N 30°03' W 093°44'3 5.7
2018-Jun-08 12:30N 30°00' W 093°46'3 6.5
2018-Jun-08 12:00N 29°59' W 093°49'3 6.2
2018-Jun-08 11:30N 29°57' W 093°52'3 6.7
2018-Jun-08 11:00N 29°54' W 093°54'3 6.8
2018-Jun-08 10:30N 29°51' W 093°56'3 5.0
2018-Jun-08 10:00N 29°49' W 093°58'1 3.0
2018-Jun-08 09:30N 29°49' W 093°60'3 6.0
2018-Jun-08 09:00N 29°47' W 094°02'3 5.9
2018-Jun-08 08:30N 29°45' W 094°05'3 5.6
2018-Jun-08 08:00N 29°43' W 094°07'3 5.7
2018-Jun-08 07:30N 29°41' W 094°10'3 5.7
2018-Jun-08 07:00N 29°40' W 094°13'3 5.5
2018-Jun-08 06:29N 29°39' W 094°16'3 5.6
2018-Jun-08 06:00N 29°38' W 094°19'3 5.7
2018-Jun-08 05:30N 29°36' W 094°22'3 5.3
2018-Jun-08 05:00N 29°36' W 094°25'2 4.6
2018-Jun-08 04:30N 29°34' W 094°26'3 5.2
2018-Jun-08 03:59N 29°32' W 094°29'11 6.0
2018-Jun-08 02:12N 29°28' W 094°40'2 6.2
2018-Jun-08 01:55N 29°27' W 094°42'3 3.8
2018-Jun-08 01:14N 29°25' W 094°44'0 0.0
2018-Jun-08 00:51N 29°25' W 094°44'2 5.5
2018-Jun-08 00:30N 29°24' W 094°45'3 5.8
2018-Jun-08 00:00N 29°22' W 094°48'5 8.5
2018-Jun-07 23:28N 29°26' W 094°50'8 7.1
2018-Jun-07 22:22N 29°33' W 094°55'3 6.9
2018-Jun-07 21:59N 29°35' W 094°56'3 7.0
2018-Jun-07 21:30N 29°38' W 094°58'  
2018-Jun-04 13:37N 29°46' W 095°06'0 0.0
2018-Jun-04 13:27N 29°46' W 095°06'0 0.0
2018-Jun-04 13:00N 29°46' W 095°06'0 0.0
2018-Jun-03 08:03N 29°46' W 095°06'0 0.0
2018-Jun-03 08:00N 29°46' W 095°06'0 0.0
2018-Jun-03 06:36N 29°46' W 095°06'0 0.0
2018-Jun-03 06:24N 29°46' W 095°06'0 0.0
2018-Jun-03 05:57N 29°46' W 095°06'0 0.0
2018-Jun-03 05:21N 29°46' W 095°06'0 0.0
2018-Jun-03 05:00N 29°46' W 095°06'0 0.0
2018-Jun-03 04:21N 29°46' W 095°06'0 0.0
2018-Jun-03 04:00N 29°46' W 095°06'0 0.0
2018-Jun-03 03:24N 29°46' W 095°06'  

Dump ship's entire track history